Paraiso do Tocantins, Brazil
Current Conditions -  °F | °C
As of 12:00 PM on Saturday 27 Dec 2014 (Local Time) from SBPJ Reporting Station
Few Clouds Few Clouds  
Wind Chill: 90°   Ceiling: Unl
Heat Index: 93°   Visibility: 6mi
Dew Point: 68°   Wind: 8mph
Humidity: 49%   Direction: 100°E
Pressure: 29.88"   Gusts: NA
Location:  10.18°S, 48.87°W
Report Text: SBPJ 271500Z 10007KT 9999 FEW033 32/20 Q1012
Loading
Personal Weather Stations






























Interactive Weather Map New forecast layout! Learn more

10-Day Weather Forecast

Advertisements
Track Severe Weather on mobile